createdAt,value
2022-11-03T00:01:53.281Z,19.70
2022-11-03T00:04:55.727Z,20.50
2022-11-03T00:07:57.896Z,18.95
2022-11-03T00:11:09.832Z,19.33
2022-11-03T00:14:12.864Z,20.83
2022-11-03T00:17:14.976Z,18.73
2022-11-03T00:20:17.110Z,18.53
2022-11-03T00:23:19.240Z,20.40
2022-11-03T00:26:23.615Z,19.30
2022-11-03T00:29:27.281Z,18.77
2022-11-03T00:32:29.465Z,18.85
2022-11-03T00:35:32.071Z,20.70
2022-11-03T00:38:34.664Z,16.75
2022-11-03T00:41:37.380Z,14.23
2022-11-03T00:44:39.552Z,17.70
2022-11-03T00:48:01.680Z,15.07
2022-11-03T00:51:17.947Z,16.43
2022-11-03T00:54:20.092Z,13.60
2022-11-03T00:57:22.230Z,15.40
2022-11-03T01:00:24.338Z,19.88
2022-11-03T01:03:26.602Z,28.00
2022-11-03T01:06:47.464Z,26.13
2022-11-03T01:09:49.794Z,19.95
2022-11-03T01:12:52.536Z,24.63
2022-11-03T01:15:59.428Z,27.23
2022-11-03T01:19:01.613Z,30.65
2022-11-03T01:22:11.095Z,26.07
2022-11-03T01:25:13.564Z,21.65
2022-11-03T01:28:16.145Z,20.55
2022-11-03T01:31:20.498Z,24.90
2022-11-03T01:34:22.920Z,31.35
2022-11-03T01:37:25.792Z,26.23
2022-11-03T01:40:28.017Z,25.95
2022-11-03T01:43:31.573Z,26.13
2022-11-03T01:46:48.232Z,19.35
2022-11-03T01:50:02.556Z,21.90
2022-11-03T01:53:05.010Z,20.20
2022-11-03T01:56:07.904Z,19.98
2022-11-03T01:59:10.202Z,20.05
2022-11-03T02:02:12.497Z,21.52
2022-11-03T02:05:15.958Z,22.25
2022-11-03T02:08:39.826Z,21.10
2022-11-03T02:12:00.962Z,20.30
2022-11-03T02:15:07.777Z,20.10
2022-11-03T02:18:11.152Z,17.85
2022-11-03T02:21:25.363Z,15.68
2022-11-03T02:24:35.002Z,15.60
2022-11-03T02:27:37.873Z,17.92
2022-11-03T02:31:23.369Z,21.27
2022-11-03T02:34:32.249Z,19.08
2022-11-03T02:37:37.006Z,17.13
2022-11-03T02:40:43.074Z,19.60
2022-11-03T02:43:46.188Z,18.30
2022-11-03T02:46:56.730Z,17.90
2022-11-03T02:49:59.062Z,16.25
2022-11-03T02:53:01.341Z,21.13
2022-11-03T02:56:12.873Z,21.10
2022-11-03T02:59:21.844Z,16.77
2022-11-03T03:02:35.270Z,19.25
2022-11-03T03:05:38.794Z,20.42
2022-11-03T03:08:44.957Z,23.98
2022-11-03T03:11:48.275Z,20.00
2022-11-03T03:14:51.215Z,20.42
2022-11-03T03:17:58.402Z,24.88
2022-11-03T03:21:05.214Z,28.42
2022-11-03T03:24:11.697Z,26.33
2022-11-03T03:27:14.197Z,25.53
2022-11-03T03:30:16.607Z,27.90
2022-11-03T03:33:19.663Z,22.30
2022-11-03T03:36:22.886Z,21.83
2022-11-03T03:39:28.080Z,22.30
2022-11-03T03:42:32.293Z,24.07
2022-11-03T03:45:35.333Z,22.92
2022-11-03T03:48:37.589Z,28.35
2022-11-03T03:51:39.710Z,21.70
2022-11-03T03:54:41.877Z,19.08
2022-11-03T03:57:44.145Z,19.93
2022-11-03T04:00:46.548Z,17.60
2022-11-03T04:03:48.845Z,20.95
2022-11-03T04:07:10.951Z,20.55
2022-11-03T04:10:13.469Z,21.85
2022-11-03T04:13:34.443Z,21.27
2022-11-03T04:16:55.152Z,20.65
2022-11-03T04:20:15.780Z,22.45
2022-11-03T04:23:18.640Z,21.48
2022-11-03T04:26:24.039Z,22.17
2022-11-03T04:29:26.288Z,21.60
2022-11-03T04:32:29.118Z,21.75
2022-11-03T04:35:31.308Z,20.70
2022-11-03T04:38:33.972Z,17.92
2022-11-03T04:41:38.683Z,18.55
2022-11-03T04:44:40.910Z,16.93
2022-11-03T04:47:43.137Z,18.25
2022-11-03T04:50:47.283Z,14.80
2022-11-03T04:54:14.206Z,14.48
2022-11-03T04:57:17.255Z,15.00
2022-11-03T05:00:19.675Z,15.83
2022-11-03T05:03:32.119Z,17.65
2022-11-03T05:06:34.291Z,17.30
2022-11-03T05:09:40.237Z,19.23
2022-11-03T05:12:46.027Z,17.52
2022-11-03T05:15:48.284Z,18.60
2022-11-03T05:18:50.526Z,20.42
2022-11-03T05:21:53.160Z,16.67
2022-11-03T05:25:01.743Z,17.02
2022-11-03T05:28:04.221Z,18.88
2022-11-03T05:31:27.764Z,21.73
2022-11-03T05:34:36.528Z,22.63
2022-11-03T05:37:39.622Z,19.00
2022-11-03T05:40:43.024Z,17.88
2022-11-03T05:43:56.256Z,17.25
2022-11-03T05:47:01.955Z,19.67
2022-11-03T05:50:26.920Z,15.38
2022-11-03T05:53:42.397Z,24.35
2022-11-03T05:56:45.290Z,19.05
2022-11-03T05:59:50.535Z,19.30
2022-11-03T06:02:53.553Z,22.23
2022-11-03T06:05:57.956Z,23.00
2022-11-03T06:09:03.497Z,28.38
2022-11-03T06:12:07.507Z,26.85
2022-11-03T06:15:25.662Z,21.83
2022-11-03T06:18:36.456Z,19.30
2022-11-03T06:21:44.238Z,17.90
2022-11-03T06:24:47.406Z,17.40
2022-11-03T06:27:49.728Z,20.08
2022-11-03T06:30:52.326Z,17.08
2022-11-03T06:33:55.843Z,18.17
2022-11-03T06:36:59.517Z,16.85
2022-11-03T06:40:22.295Z,18.85
2022-11-03T06:43:38.202Z,17.20
2022-11-03T06:46:40.338Z,14.80
2022-11-03T06:49:43.276Z,16.70
2022-11-03T06:55:55.450Z,15.30
2022-11-03T06:58:58.222Z,16.20
2022-11-03T07:02:00.863Z,16.90
2022-11-03T07:05:11.260Z,14.40
2022-11-03T07:08:19.801Z,15.27
2022-11-03T07:11:30.374Z,13.57
2022-11-03T07:14:33.924Z,12.23
2022-11-03T07:17:36.661Z,12.38
2022-11-03T07:20:40.369Z,11.77
2022-11-03T07:23:46.329Z,9.95
2022-11-03T07:26:55.362Z,9.82
2022-11-03T07:30:00.605Z,12.35
2022-11-03T07:33:15.579Z,13.90
2022-11-03T07:36:21.237Z,12.87
2022-11-03T07:39:24.636Z,12.95
2022-11-03T07:42:27.419Z,14.48
2022-11-03T07:45:40.775Z,13.10
2022-11-03T07:48:46.312Z,13.23
2022-11-03T07:51:48.839Z,12.83
2022-11-03T07:54:51.898Z,14.07
2022-11-03T07:57:54.727Z,13.13
2022-11-03T08:00:58.024Z,13.70
2022-11-03T08:04:05.023Z,12.27
2022-11-03T08:07:07.300Z,12.20
2022-11-03T08:10:09.951Z,10.63
2022-11-03T08:13:12.114Z,12.57
2022-11-03T08:16:14.253Z,12.98
2022-11-03T08:19:16.460Z,13.32
2022-11-03T08:22:18.697Z,12.90
2022-11-03T08:25:20.876Z,10.40
2022-11-03T08:28:23.206Z,10.15
2022-11-03T08:31:25.331Z,12.40
2022-11-03T08:34:27.485Z,13.93
2022-11-03T08:37:29.744Z,13.23
2022-11-03T08:40:31.871Z,15.50
2022-11-03T08:43:34.127Z,16.67
2022-11-03T08:46:36.416Z,14.88
2022-11-03T08:49:38.562Z,19.00
2022-11-03T08:52:41.251Z,17.67
2022-11-03T08:55:43.368Z,16.33
2022-11-03T08:58:46.148Z,18.17
2022-11-03T09:01:48.379Z,16.15
2022-11-03T09:04:50.657Z,20.75
2022-11-03T09:11:15.096Z,23.92
2022-11-03T09:14:17.640Z,28.55
2022-11-03T09:17:19.812Z,26.50
2022-11-03T09:20:22.076Z,26.83
2022-11-03T09:23:24.222Z,26.27
2022-11-03T09:26:27.032Z,30.35
2022-11-03T09:29:36.343Z,31.80
2022-11-03T09:32:48.343Z,33.70
2022-11-03T09:35:50.507Z,31.45
2022-11-03T09:38:52.681Z,34.40
2022-11-03T09:41:58.964Z,31.38
2022-11-03T09:45:02.270Z,32.10
2022-11-03T09:48:05.624Z,29.67
2022-11-03T09:51:11.148Z,32.47
2022-11-03T09:54:15.758Z,30.23
2022-11-03T09:57:18.203Z,36.75
2022-11-03T10:00:22.124Z,36.45
2022-11-03T10:03:24.277Z,34.92
2022-11-03T10:06:26.436Z,35.47
2022-11-03T10:09:29.337Z,36.07
2022-11-03T10:12:37.088Z,33.70
2022-11-03T10:15:39.740Z,34.47
2022-11-03T10:18:42.701Z,38.63
2022-11-03T10:21:45.378Z,34.47
2022-11-03T10:24:47.664Z,33.97
2022-11-03T10:27:49.792Z,34.65
2022-11-03T10:31:16.555Z,39.03
2022-11-03T10:34:34.888Z,35.90
2022-11-03T10:37:39.039Z,32.85
2022-11-03T10:40:47.174Z,32.70
2022-11-03T10:44:12.218Z,31.63
2022-11-03T10:47:34.829Z,34.53
2022-11-03T10:50:39.619Z,31.08
2022-11-03T10:53:42.829Z,35.38
2022-11-03T10:56:46.605Z,33.90
2022-11-03T10:59:50.796Z,36.03
2022-11-03T11:02:58.961Z,37.42
2022-11-03T11:06:01.115Z,34.67
2022-11-03T11:09:05.940Z,33.72
2022-11-03T11:12:22.752Z,33.20
2022-11-03T11:15:43.884Z,32.20
2022-11-03T11:18:45.967Z,33.72
2022-11-03T11:21:48.080Z,29.23
2022-11-03T11:24:50.184Z,30.85
2022-11-03T11:27:58.275Z,36.23
2022-11-03T11:31:01.274Z,28.33
2022-11-03T11:34:09.540Z,29.15
2022-11-03T11:37:11.727Z,32.95
2022-11-03T11:40:19.968Z,33.35
2022-11-03T11:43:26.628Z,34.00
2022-11-03T11:46:40.835Z,32.40
2022-11-03T11:49:43.034Z,31.00
2022-11-03T11:52:53.816Z,30.92
2022-11-03T11:56:02.497Z,32.05
2022-11-03T11:59:04.871Z,35.73
2022-11-03T12:02:19.993Z,36.05
2022-11-03T12:05:33.520Z,39.22
2022-11-03T12:08:35.759Z,34.38
2022-11-03T12:11:59.232Z,34.40
2022-11-03T12:15:02.834Z,37.30
2022-11-03T12:18:40.731Z,34.10
2022-11-03T12:21:47.410Z,32.60
2022-11-03T12:24:59.331Z,33.88
2022-11-03T12:28:01.761Z,37.28
2022-11-03T12:31:04.413Z,38.07
2022-11-03T12:34:06.524Z,39.15
2022-11-03T12:37:09.855Z,39.60
2022-11-03T12:40:14.140Z,40.20
2022-11-03T12:43:16.507Z,42.78
2022-11-03T12:46:20.246Z,37.67
2022-11-03T12:49:22.399Z,40.75
2022-11-03T12:52:24.603Z,36.97
2022-11-03T12:58:30.004Z,37.38
2022-11-03T13:01:33.311Z,38.67
2022-11-03T13:04:35.561Z,36.47
2022-11-03T13:07:37.672Z,38.97
2022-11-03T13:10:40.876Z,36.75
2022-11-03T13:13:43.050Z,38.78
2022-11-03T13:16:45.228Z,37.87
2022-11-03T13:19:47.383Z,45.60
2022-11-03T13:22:49.549Z,37.72
2022-11-03T13:25:51.999Z,39.70
2022-11-03T13:28:54.306Z,38.17
2022-11-03T13:31:56.468Z,39.30
2022-11-03T13:34:58.708Z,40.35
2022-11-03T13:38:00.806Z,38.90
2022-11-03T13:41:08.454Z,34.03
2022-11-03T13:44:11.271Z,32.90
2022-11-03T13:47:13.533Z,31.37
2022-11-03T13:50:16.352Z,31.75
2022-11-03T14:00:06.066Z,31.27
2022-11-03T14:06:36.556Z,32.65
2022-11-03T14:09:38.926Z,31.70
2022-11-03T14:12:41.169Z,29.60
2022-11-03T14:15:43.316Z,30.30
2022-11-03T14:18:45.431Z,30.33
2022-11-03T14:21:47.718Z,29.80
2022-11-03T14:24:50.951Z,29.08
2022-11-03T14:27:53.179Z,31.08
2022-11-03T14:30:59.643Z,28.35
2022-11-03T14:34:02.006Z,25.67
2022-11-03T14:37:05.549Z,25.30
2022-11-03T14:40:28.401Z,25.80
2022-11-03T14:43:34.970Z,25.27
2022-11-03T14:46:37.396Z,27.50
2022-11-03T14:49:39.533Z,26.50
2022-11-03T14:52:41.647Z,22.83
2022-11-03T14:55:43.794Z,23.23
2022-11-03T14:58:46.039Z,27.90
2022-11-03T15:01:49.107Z,25.88
2022-11-03T15:04:51.370Z,26.80
2022-11-03T15:07:53.495Z,26.77
2022-11-03T15:10:55.692Z,31.70
2022-11-03T15:13:57.885Z,26.92
2022-11-03T15:17:00.005Z,28.67
2022-11-03T15:20:02.149Z,29.90
2022-11-03T15:26:27.704Z,32.60
2022-11-03T15:29:29.926Z,31.42
2022-11-03T15:32:36.261Z,35.45
2022-11-03T15:35:38.843Z,32.90
2022-11-03T15:38:41.010Z,32.03
2022-11-03T15:41:43.141Z,37.55
2022-11-03T15:44:45.274Z,35.17
2022-11-03T15:47:47.585Z,29.45
2022-11-03T15:50:49.721Z,32.43
2022-11-03T15:53:57.768Z,35.78
2022-11-03T15:57:00.932Z,31.55
2022-11-03T16:00:06.337Z,33.60
2022-11-03T16:03:08.545Z,34.40
2022-11-03T16:06:10.739Z,27.10
2022-11-03T16:09:12.855Z,32.05
2022-11-03T16:12:15.044Z,35.30
2022-11-03T16:15:25.022Z,32.75
2022-11-03T16:18:27.352Z,32.25
2022-11-03T16:21:29.603Z,37.63
2022-11-03T16:24:35.276Z,31.85
2022-11-03T16:27:38.242Z,31.88
2022-11-03T16:30:43.530Z,36.55
2022-11-03T16:33:45.665Z,32.47
2022-11-03T16:36:47.839Z,44.77
2022-11-03T16:39:50.674Z,42.63
2022-11-03T16:42:53.405Z,42.22
2022-11-03T16:45:56.986Z,40.65
2022-11-03T16:52:06.522Z,39.50
2022-11-03T16:55:12.120Z,44.50
2022-11-03T16:58:14.505Z,43.13
2022-11-03T17:01:17.418Z,41.75
2022-11-03T17:04:20.618Z,42.00
2022-11-03T17:07:23.700Z,46.93
2022-11-03T17:10:28.710Z,49.92
2022-11-03T17:13:31.188Z,47.63
2022-11-03T17:16:34.075Z,42.38
2022-11-03T17:19:37.432Z,43.15
2022-11-03T17:22:40.167Z,48.17
2022-11-03T17:25:43.104Z,46.63
2022-11-03T17:28:46.964Z,51.08
2022-11-03T17:31:50.986Z,60.33
2022-11-03T17:34:54.145Z,50.75
2022-11-03T17:37:56.931Z,44.00
2022-11-03T17:40:59.476Z,47.40
2022-11-03T17:44:01.651Z,47.25
2022-11-03T17:47:07.434Z,47.40
2022-11-03T17:51:07.352Z,48.20
2022-11-03T17:54:15.117Z,48.13
2022-11-03T17:57:19.997Z,52.70
2022-11-03T18:00:22.799Z,54.63
2022-11-03T18:03:26.327Z,55.38
2022-11-03T18:06:29.837Z,52.25
2022-11-03T18:09:31.957Z,48.23
2022-11-03T18:12:56.254Z,47.25
2022-11-03T18:16:10.823Z,47.67
2022-11-03T18:19:15.392Z,45.28
2022-11-03T18:22:17.631Z,48.78
2022-11-03T18:25:21.762Z,53.63
2022-11-03T18:28:24.566Z,47.85
2022-11-03T18:31:41.880Z,47.83
2022-11-03T18:34:45.484Z,46.88
2022-11-03T18:37:48.345Z,49.50
2022-11-03T18:40:51.275Z,42.83
2022-11-03T18:43:53.942Z,46.00
2022-11-03T18:46:57.589Z,54.33
2022-11-03T18:50:00.461Z,56.15
2022-11-03T18:53:06.720Z,52.80
2022-11-03T18:56:10.134Z,54.53
2022-11-03T18:59:19.937Z,49.70
2022-11-03T19:02:26.370Z,52.75
2022-11-03T19:05:29.815Z,57.22
2022-11-03T19:08:33.466Z,71.78
2022-11-03T19:11:36.768Z,83.47
2022-11-03T19:14:41.901Z,102.35
2022-11-03T19:17:45.817Z,75.05
2022-11-03T19:20:49.135Z,52.95
2022-11-03T19:23:58.074Z,51.90
2022-11-03T19:27:02.898Z,49.40
2022-11-03T19:30:05.763Z,46.40
2022-11-03T19:33:16.264Z,50.47
2022-11-03T19:36:19.014Z,48.13
2022-11-03T19:39:37.260Z,45.22
2022-11-03T19:42:40.227Z,46.80
2022-11-03T19:45:42.817Z,50.22
2022-11-03T19:48:45.649Z,49.15
2022-11-03T19:51:51.559Z,47.13
2022-11-03T19:54:54.949Z,47.42
2022-11-03T19:58:02.846Z,46.33
2022-11-03T20:01:08.689Z,48.70
2022-11-03T20:04:11.794Z,52.92
2022-11-03T20:07:18.228Z,53.40
2022-11-03T20:10:20.677Z,50.65
2022-11-03T20:13:25.780Z,47.17
2022-11-03T20:16:29.976Z,49.40
2022-11-03T20:19:32.676Z,46.53
2022-11-03T20:22:34.914Z,44.63
2022-11-03T20:25:37.521Z,43.85
2022-11-03T20:28:40.286Z,51.83
2022-11-03T20:31:44.551Z,44.78
2022-11-03T20:34:47.290Z,47.45
2022-11-03T20:37:51.847Z,44.55
2022-11-03T20:40:59.018Z,41.67
2022-11-03T20:44:03.864Z,44.90
2022-11-03T20:47:13.255Z,42.38
2022-11-03T20:50:18.418Z,43.28
2022-11-03T20:53:23.106Z,40.83
2022-11-03T20:56:27.225Z,43.13
2022-11-03T20:59:33.298Z,42.00
2022-11-03T21:02:38.826Z,43.78
2022-11-03T21:05:41.445Z,38.22
2022-11-03T21:08:45.164Z,38.95
2022-11-03T21:11:47.935Z,40.45
2022-11-03T21:15:09.444Z,39.77
2022-11-03T21:18:33.580Z,39.60
2022-11-03T21:21:35.850Z,38.85
2022-11-03T21:24:38.055Z,36.30
2022-11-03T21:27:42.076Z,40.00
2022-11-03T21:30:45.061Z,36.27
2022-11-03T21:33:47.310Z,32.38
2022-11-03T21:36:52.212Z,33.55
2022-11-03T21:39:54.638Z,35.97
2022-11-03T21:43:15.547Z,30.95
2022-11-03T21:46:17.984Z,33.47
2022-11-03T21:49:38.782Z,32.65
2022-11-03T21:52:40.987Z,36.65
2022-11-03T21:55:43.191Z,31.45
2022-11-03T21:58:45.609Z,31.30
2022-11-03T22:01:50.694Z,33.00
2022-11-03T22:05:04.360Z,29.20
2022-11-03T22:08:10.676Z,33.58
2022-11-03T22:11:21.849Z,36.55
2022-11-03T22:14:26.578Z,31.48
2022-11-03T22:17:28.968Z,32.60
2022-11-03T22:20:49.920Z,32.03
2022-11-03T22:24:21.261Z,31.02
2022-11-03T22:27:27.595Z,33.92
2022-11-03T22:30:49.332Z,31.77
2022-11-03T22:34:10.038Z,30.30
2022-11-03T22:37:12.572Z,36.80
2022-11-03T22:40:46.892Z,33.92
2022-11-03T22:44:07.856Z,33.50
2022-11-03T22:47:11.311Z,33.88
2022-11-03T22:50:15.435Z,36.47
2022-11-03T22:53:36.405Z,36.33
2022-11-03T22:56:39.519Z,34.13
2022-11-03T22:59:41.719Z,33.65
2022-11-03T23:02:44.278Z,33.08
2022-11-03T23:05:46.501Z,30.50
2022-11-03T23:08:49.853Z,37.55
2022-11-03T23:11:52.010Z,37.08
2022-11-03T23:15:12.728Z,31.98
2022-11-03T23:18:33.358Z,34.10
2022-11-03T23:21:36.085Z,31.60
2022-11-03T23:24:56.502Z,35.72
2022-11-03T23:27:58.665Z,32.10
2022-11-03T23:31:00.830Z,31.08
2022-11-03T23:34:04.377Z,34.67
2022-11-03T23:37:06.543Z,33.20
2022-11-03T23:40:09.239Z,35.65
2022-11-03T23:43:11.461Z,33.78
2022-11-03T23:46:35.333Z,35.58
2022-11-03T23:49:37.467Z,32.58
2022-11-03T23:52:39.655Z,34.50
2022-11-03T23:56:00.606Z,30.52
2022-11-03T23:59:03.997Z,29.85
